sensor_id;sensor_type;location;lat;lon;timestamp;P1;durP1;ratioP1;P2;durP2;ratioP2
37069;SDS011;22984;48.862;9.320;2023-04-06T00:00:52;21.70;;;12.27;;
37069;SDS011;22984;48.862;9.320;2023-04-06T00:03:18;16.58;;;11.80;;
37069;SDS011;22984;48.862;9.320;2023-04-06T00:05:44;17.23;;;11.90;;
37069;SDS011;22984;48.862;9.320;2023-04-06T00:08:10;16.67;;;11.60;;
37069;SDS011;22984;48.862;9.320;2023-04-06T00:10:36;17.20;;;11.90;;
37069;SDS011;22984;48.862;9.320;2023-04-06T00:13:02;15.93;;;11.85;;
37069;SDS011;22984;48.862;9.320;2023-04-06T00:15:28;22.20;;;13.60;;
37069;SDS011;22984;48.862;9.320;2023-04-06T00:17:55;24.88;;;14.77;;
37069;SDS011;22984;48.862;9.320;2023-04-06T00:20:21;18.98;;;15.13;;
37069;SDS011;22984;48.862;9.320;2023-04-06T00:22:47;22.85;;;15.63;;
37069;SDS011;22984;48.862;9.320;2023-04-06T00:25:13;24.90;;;14.68;;
37069;SDS011;22984;48.862;9.320;2023-04-06T00:27:40;22.30;;;14.85;;
37069;SDS011;22984;48.862;9.320;2023-04-06T00:30:07;19.30;;;13.30;;
37069;SDS011;22984;48.862;9.320;2023-04-06T00:32:34;18.67;;;12.57;;
37069;SDS011;22984;48.862;9.320;2023-04-06T00:35:04;20.55;;;13.55;;
37069;SDS011;22984;48.862;9.320;2023-04-06T00:37:30;20.25;;;13.75;;
37069;SDS011;22984;48.862;9.320;2023-04-06T00:39:57;22.77;;;14.07;;
37069;SDS011;22984;48.862;9.320;2023-04-06T00:42:23;20.55;;;13.35;;
37069;SDS011;22984;48.862;9.320;2023-04-06T00:44:56;23.03;;;14.03;;
37069;SDS011;22984;48.862;9.320;2023-04-06T00:47:22;19.23;;;13.40;;
37069;SDS011;22984;48.862;9.320;2023-04-06T00:49:50;19.83;;;12.32;;
37069;SDS011;22984;48.862;9.320;2023-04-06T00:52:16;20.25;;;12.93;;
37069;SDS011;22984;48.862;9.320;2023-04-06T00:54:43;17.38;;;12.82;;
37069;SDS011;22984;48.862;9.320;2023-04-06T00:57:09;17.02;;;12.98;;
37069;SDS011;22984;48.862;9.320;2023-04-06T00:59:36;18.42;;;12.80;;
37069;SDS011;22984;48.862;9.320;2023-04-06T01:02:02;17.75;;;13.07;;
37069;SDS011;22984;48.862;9.320;2023-04-06T01:04:28;19.45;;;12.75;;
37069;SDS011;22984;48.862;9.320;2023-04-06T01:06:54;19.35;;;12.45;;
37069;SDS011;22984;48.862;9.320;2023-04-06T01:09:20;16.17;;;12.23;;
37069;SDS011;22984;48.862;9.320;2023-04-06T01:11:46;17.10;;;11.73;;
37069;SDS011;22984;48.862;9.320;2023-04-06T01:14:13;18.05;;;11.80;;
37069;SDS011;22984;48.862;9.320;2023-04-06T01:16:39;19.95;;;11.95;;
37069;SDS011;22984;48.862;9.320;2023-04-06T01:19:08;20.70;;;12.13;;
37069;SDS011;22984;48.862;9.320;2023-04-06T01:21:35;22.77;;;13.10;;
37069;SDS011;22984;48.862;9.320;2023-04-06T01:24:01;23.52;;;12.82;;
37069;SDS011;22984;48.862;9.320;2023-04-06T01:26:27;18.52;;;12.60;;
37069;SDS011;22984;48.862;9.320;2023-04-06T01:28:54;20.80;;;13.47;;
37069;SDS011;22984;48.862;9.320;2023-04-06T01:31:20;21.15;;;13.52;;
37069;SDS011;22984;48.862;9.320;2023-04-06T01:33:47;20.48;;;13.85;;
37069;SDS011;22984;48.862;9.320;2023-04-06T01:36:13;21.33;;;13.00;;
37069;SDS011;22984;48.862;9.320;2023-04-06T01:38:39;16.40;;;12.60;;
37069;SDS011;22984;48.862;9.320;2023-04-06T01:41:06;16.75;;;12.52;;
37069;SDS011;22984;48.862;9.320;2023-04-06T01:43:32;16.00;;;12.35;;
37069;SDS011;22984;48.862;9.320;2023-04-06T01:45:58;15.48;;;12.07;;
37069;SDS011;22984;48.862;9.320;2023-04-06T01:48:25;14.90;;;11.88;;
37069;SDS011;22984;48.862;9.320;2023-04-06T01:50:51;16.92;;;12.15;;
37069;SDS011;22984;48.862;9.320;2023-04-06T01:53:17;16.17;;;12.77;;
37069;SDS011;22984;48.862;9.320;2023-04-06T01:55:44;19.60;;;12.13;;
37069;SDS011;22984;48.862;9.320;2023-04-06T01:58:10;15.88;;;11.65;;
37069;SDS011;22984;48.862;9.320;2023-04-06T02:00:36;16.90;;;12.20;;
37069;SDS011;22984;48.862;9.320;2023-04-06T02:03:03;16.48;;;12.10;;
37069;SDS011;22984;48.862;9.320;2023-04-06T02:05:29;17.60;;;12.13;;
37069;SDS011;22984;48.862;9.320;2023-04-06T02:07:56;17.40;;;11.88;;
37069;SDS011;22984;48.862;9.320;2023-04-06T02:10:22;15.85;;;11.98;;
37069;SDS011;22984;48.862;9.320;2023-04-06T02:12:49;19.23;;;11.85;;
37069;SDS011;22984;48.862;9.320;2023-04-06T02:15:15;17.23;;;11.52;;
37069;SDS011;22984;48.862;9.320;2023-04-06T02:17:41;17.20;;;10.95;;
37069;SDS011;22984;48.862;9.320;2023-04-06T02:20:07;16.73;;;11.50;;
37069;SDS011;22984;48.862;9.320;2023-04-06T02:22:34;14.60;;;11.30;;
37069;SDS011;22984;48.862;9.320;2023-04-06T02:25:00;16.13;;;11.02;;
37069;SDS011;22984;48.862;9.320;2023-04-06T02:27:27;13.63;;;10.75;;
37069;SDS011;22984;48.862;9.320;2023-04-06T02:29:53;17.88;;;12.02;;
37069;SDS011;22984;48.862;9.320;2023-04-06T02:32:19;14.48;;;11.23;;
37069;SDS011;22984;48.862;9.320;2023-04-06T02:34:45;12.70;;;10.45;;
37069;SDS011;22984;48.862;9.320;2023-04-06T02:37:11;14.32;;;11.18;;
37069;SDS011;22984;48.862;9.320;2023-04-06T02:39:37;16.00;;;11.20;;
37069;SDS011;22984;48.862;9.320;2023-04-06T02:42:03;19.63;;;11.60;;
37069;SDS011;22984;48.862;9.320;2023-04-06T02:44:29;17.88;;;11.70;;
37069;SDS011;22984;48.862;9.320;2023-04-06T02:46:55;11.83;;;10.20;;
37069;SDS011;22984;48.862;9.320;2023-04-06T02:49:21;17.02;;;11.90;;
37069;SDS011;22984;48.862;9.320;2023-04-06T02:51:48;14.52;;;10.98;;
37069;SDS011;22984;48.862;9.320;2023-04-06T02:54:14;17.92;;;11.05;;
37069;SDS011;22984;48.862;9.320;2023-04-06T02:56:40;16.38;;;10.98;;
37069;SDS011;22984;48.862;9.320;2023-04-06T02:59:06;15.15;;;10.73;;
37069;SDS011;22984;48.862;9.320;2023-04-06T03:01:32;18.83;;;11.50;;
37069;SDS011;22984;48.862;9.320;2023-04-06T03:03:58;18.40;;;9.98;;
37069;SDS011;22984;48.862;9.320;2023-04-06T03:06:24;12.85;;;10.13;;
37069;SDS011;22984;48.862;9.320;2023-04-06T03:08:51;12.73;;;10.18;;
37069;SDS011;22984;48.862;9.320;2023-04-06T03:11:17;18.63;;;10.45;;
37069;SDS011;22984;48.862;9.320;2023-04-06T03:13:44;14.30;;;11.15;;
37069;SDS011;22984;48.862;9.320;2023-04-06T03:16:10;17.35;;;10.75;;
37069;SDS011;22984;48.862;9.320;2023-04-06T03:18:36;17.25;;;10.95;;
37069;SDS011;22984;48.862;9.320;2023-04-06T03:21:02;12.40;;;10.27;;
37069;SDS011;22984;48.862;9.320;2023-04-06T03:23:28;12.30;;;9.75;;
37069;SDS011;22984;48.862;9.320;2023-04-06T03:25:54;23.50;;;11.50;;
37069;SDS011;22984;48.862;9.320;2023-04-06T03:28:20;17.42;;;11.57;;
37069;SDS011;22984;48.862;9.320;2023-04-06T03:30:47;13.75;;;10.70;;
37069;SDS011;22984;48.862;9.320;2023-04-06T03:33:13;11.27;;;10.13;;
37069;SDS011;22984;48.862;9.320;2023-04-06T03:35:39;13.63;;;10.43;;
37069;SDS011;22984;48.862;9.320;2023-04-06T03:38:05;13.85;;;9.80;;
37069;SDS011;22984;48.862;9.320;2023-04-06T03:40:31;14.38;;;10.57;;
37069;SDS011;22984;48.862;9.320;2023-04-06T03:42:57;16.65;;;10.60;;
37069;SDS011;22984;48.862;9.320;2023-04-06T03:45:23;12.02;;;10.25;;
37069;SDS011;22984;48.862;9.320;2023-04-06T03:47:49;13.15;;;10.70;;
37069;SDS011;22984;48.862;9.320;2023-04-06T03:50:16;15.13;;;10.55;;
37069;SDS011;22984;48.862;9.320;2023-04-06T03:52:42;15.77;;;10.60;;
37069;SDS011;22984;48.862;9.320;2023-04-06T03:55:08;15.30;;;10.88;;
37069;SDS011;22984;48.862;9.320;2023-04-06T03:57:34;19.67;;;11.02;;
37069;SDS011;22984;48.862;9.320;2023-04-06T04:00:00;15.93;;;11.10;;
37069;SDS011;22984;48.862;9.320;2023-04-06T04:02:27;14.15;;;10.60;;
37069;SDS011;22984;48.862;9.320;2023-04-06T04:04:53;15.02;;;11.25;;
37069;SDS011;22984;48.862;9.320;2023-04-06T04:07:19;13.65;;;11.00;;
37069;SDS011;22984;48.862;9.320;2023-04-06T04:09:45;14.65;;;11.20;;
37069;SDS011;22984;48.862;9.320;2023-04-06T04:12:11;15.40;;;11.17;;
37069;SDS011;22984;48.862;9.320;2023-04-06T04:14:39;16.92;;;12.40;;
37069;SDS011;22984;48.862;9.320;2023-04-06T04:17:05;18.48;;;13.32;;
37069;SDS011;22984;48.862;9.320;2023-04-06T04:19:31;17.48;;;11.80;;
37069;SDS011;22984;48.862;9.320;2023-04-06T04:21:57;17.42;;;12.10;;
37069;SDS011;22984;48.862;9.320;2023-04-06T04:24:23;18.38;;;12.48;;
37069;SDS011;22984;48.862;9.320;2023-04-06T04:26:49;17.20;;;13.05;;
37069;SDS011;22984;48.862;9.320;2023-04-06T04:29:15;18.83;;;13.20;;
37069;SDS011;22984;48.862;9.320;2023-04-06T04:31:42;17.52;;;13.02;;
37069;SDS011;22984;48.862;9.320;2023-04-06T04:34:08;20.13;;;12.80;;
37069;SDS011;22984;48.862;9.320;2023-04-06T04:36:34;14.20;;;12.43;;
37069;SDS011;22984;48.862;9.320;2023-04-06T04:39:00;22.13;;;14.95;;
37069;SDS011;22984;48.862;9.320;2023-04-06T04:41:26;20.90;;;13.10;;
37069;SDS011;22984;48.862;9.320;2023-04-06T04:43:52;18.27;;;12.90;;
37069;SDS011;22984;48.862;9.320;2023-04-06T04:46:18;18.98;;;13.25;;
37069;SDS011;22984;48.862;9.320;2023-04-06T04:48:44;17.98;;;11.85;;
37069;SDS011;22984;48.862;9.320;2023-04-06T04:51:11;16.13;;;12.48;;
37069;SDS011;22984;48.862;9.320;2023-04-06T04:53:37;16.90;;;11.40;;
37069;SDS011;22984;48.862;9.320;2023-04-06T04:56:03;13.70;;;11.50;;
37069;SDS011;22984;48.862;9.320;2023-04-06T04:58:29;15.88;;;11.35;;
37069;SDS011;22984;48.862;9.320;2023-04-06T05:00:55;21.17;;;11.68;;
37069;SDS011;22984;48.862;9.320;2023-04-06T05:03:22;15.60;;;12.25;;
37069;SDS011;22984;48.862;9.320;2023-04-06T05:05:48;19.60;;;13.15;;
37069;SDS011;22984;48.862;9.320;2023-04-06T05:08:15;19.02;;;12.43;;
37069;SDS011;22984;48.862;9.320;2023-04-06T05:10:41;17.58;;;12.73;;
37069;SDS011;22984;48.862;9.320;2023-04-06T05:13:07;17.70;;;11.90;;
37069;SDS011;22984;48.862;9.320;2023-04-06T05:15:33;15.50;;;11.50;;
37069;SDS011;22984;48.862;9.320;2023-04-06T05:18:00;17.83;;;11.82;;
37069;SDS011;22984;48.862;9.320;2023-04-06T05:20:26;21.58;;;13.10;;
37069;SDS011;22984;48.862;9.320;2023-04-06T05:22:53;17.35;;;12.60;;
37069;SDS011;22984;48.862;9.320;2023-04-06T05:25:19;17.00;;;12.15;;
37069;SDS011;22984;48.862;9.320;2023-04-06T05:27:45;20.10;;;12.50;;
37069;SDS011;22984;48.862;9.320;2023-04-06T05:30:11;14.93;;;11.80;;
37069;SDS011;22984;48.862;9.320;2023-04-06T05:32:37;15.80;;;11.88;;
37069;SDS011;22984;48.862;9.320;2023-04-06T05:35:04;16.77;;;12.65;;
37069;SDS011;22984;48.862;9.320;2023-04-06T05:37:30;20.50;;;13.05;;
37069;SDS011;22984;48.862;9.320;2023-04-06T05:39:56;16.98;;;12.00;;
37069;SDS011;22984;48.862;9.320;2023-04-06T05:42:22;18.58;;;12.50;;
37069;SDS011;22984;48.862;9.320;2023-04-06T05:44:48;19.80;;;13.13;;
37069;SDS011;22984;48.862;9.320;2023-04-06T05:47:14;19.95;;;12.90;;
37069;SDS011;22984;48.862;9.320;2023-04-06T05:49:43;18.35;;;11.55;;
37069;SDS011;22984;48.862;9.320;2023-04-06T05:52:09;17.27;;;11.57;;
37069;SDS011;22984;48.862;9.320;2023-04-06T05:54:36;16.88;;;12.30;;
37069;SDS011;22984;48.862;9.320;2023-04-06T05:57:03;19.57;;;12.17;;
37069;SDS011;22984;48.862;9.320;2023-04-06T05:59:32;16.80;;;11.32;;
37069;SDS011;22984;48.862;9.320;2023-04-06T06:01:58;17.30;;;12.20;;
37069;SDS011;22984;48.862;9.320;2023-04-06T06:04:26;18.70;;;12.02;;
37069;SDS011;22984;48.862;9.320;2023-04-06T06:06:52;23.40;;;12.23;;
37069;SDS011;22984;48.862;9.320;2023-04-06T06:09:18;16.50;;;10.85;;
37069;SDS011;22984;48.862;9.320;2023-04-06T06:11:44;16.35;;;11.80;;
37069;SDS011;22984;48.862;9.320;2023-04-06T06:14:10;18.63;;;12.03;;
37069;SDS011;22984;48.862;9.320;2023-04-06T06:16:36;19.73;;;11.95;;
37069;SDS011;22984;48.862;9.320;2023-04-06T06:19:02;17.02;;;11.98;;
37069;SDS011;22984;48.862;9.320;2023-04-06T06:21:28;17.52;;;11.85;;
37069;SDS011;22984;48.862;9.320;2023-04-06T06:23:55;17.35;;;10.90;;
37069;SDS011;22984;48.862;9.320;2023-04-06T06:26:21;15.33;;;10.77;;
37069;SDS011;22984;48.862;9.320;2023-04-06T06:28:47;14.55;;;11.10;;
37069;SDS011;22984;48.862;9.320;2023-04-06T06:31:13;14.10;;;11.00;;
37069;SDS011;22984;48.862;9.320;2023-04-06T06:33:40;14.75;;;11.80;;
37069;SDS011;22984;48.862;9.320;2023-04-06T06:36:06;20.30;;;13.90;;
37069;SDS011;22984;48.862;9.320;2023-04-06T06:38:32;19.88;;;12.98;;
37069;SDS011;22984;48.862;9.320;2023-04-06T06:40:58;17.42;;;11.98;;
37069;SDS011;22984;48.862;9.320;2023-04-06T06:43:24;14.80;;;11.73;;
37069;SDS011;22984;48.862;9.320;2023-04-06T06:45:50;15.13;;;11.45;;
37069;SDS011;22984;48.862;9.320;2023-04-06T06:48:16;14.98;;;11.48;;
37069;SDS011;22984;48.862;9.320;2023-04-06T06:50:42;20.83;;;11.60;;
37069;SDS011;22984;48.862;9.320;2023-04-06T06:53:08;13.02;;;10.85;;
37069;SDS011;22984;48.862;9.320;2023-04-06T06:55:34;16.40;;;10.52;;
37069;SDS011;22984;48.862;9.320;2023-04-06T06:58:00;11.30;;;9.77;;
37069;SDS011;22984;48.862;9.320;2023-04-06T07:00:26;13.65;;;9.88;;
37069;SDS011;22984;48.862;9.320;2023-04-06T07:02:52;22.02;;;11.60;;
37069;SDS011;22984;48.862;9.320;2023-04-06T07:05:18;17.88;;;12.57;;
37069;SDS011;22984;48.862;9.320;2023-04-06T07:07:45;19.77;;;11.85;;
37069;SDS011;22984;48.862;9.320;2023-04-06T07:10:11;16.15;;;11.05;;
37069;SDS011;22984;48.862;9.320;2023-04-06T07:12:37;18.27;;;11.05;;
37069;SDS011;22984;48.862;9.320;2023-04-06T07:15:03;14.00;;;10.18;;
37069;SDS011;22984;48.862;9.320;2023-04-06T07:17:29;10.07;;;9.10;;
37069;SDS011;22984;48.862;9.320;2023-04-06T07:19:56;11.23;;;9.77;;
37069;SDS011;22984;48.862;9.320;2023-04-06T07:22:22;10.73;;;9.52;;
37069;SDS011;22984;48.862;9.320;2023-04-06T07:24:48;13.90;;;9.13;;
37069;SDS011;22984;48.862;9.320;2023-04-06T07:27:14;12.48;;;9.50;;
37069;SDS011;22984;48.862;9.320;2023-04-06T07:29:41;12.07;;;8.80;;
37069;SDS011;22984;48.862;9.320;2023-04-06T07:32:07;15.38;;;8.38;;
37069;SDS011;22984;48.862;9.320;2023-04-06T07:34:33;12.00;;;7.68;;
37069;SDS011;22984;48.862;9.320;2023-04-06T07:37:00;13.40;;;9.15;;
37069;SDS011;22984;48.862;9.320;2023-04-06T07:39:26;11.30;;;8.55;;
37069;SDS011;22984;48.862;9.320;2023-04-06T07:41:52;10.75;;;8.60;;
37069;SDS011;22984;48.862;9.320;2023-04-06T07:44:18;11.38;;;9.00;;
37069;SDS011;22984;48.862;9.320;2023-04-06T07:46:44;11.43;;;8.60;;
37069;SDS011;22984;48.862;9.320;2023-04-06T07:49:10;11.38;;;8.02;;
37069;SDS011;22984;48.862;9.320;2023-04-06T07:51:37;10.80;;;8.65;;
37069;SDS011;22984;48.862;9.320;2023-04-06T07:54:03;14.85;;;8.73;;
37069;SDS011;22984;48.862;9.320;2023-04-06T07:56:30;15.57;;;8.70;;
37069;SDS011;22984;48.862;9.320;2023-04-06T07:58:56;9.30;;;8.30;;
37069;SDS011;22984;48.862;9.320;2023-04-06T08:01:23;12.02;;;8.70;;
37069;SDS011;22984;48.862;9.320;2023-04-06T08:03:49;11.10;;;8.20;;
37069;SDS011;22984;48.862;9.320;2023-04-06T08:06:15;10.60;;;8.27;;
37069;SDS011;22984;48.862;9.320;2023-04-06T08:08:42;13.65;;;8.85;;
37069;SDS011;22984;48.862;9.320;2023-04-06T08:11:08;12.43;;;8.18;;
37069;SDS011;22984;48.862;9.320;2023-04-06T08:13:35;10.52;;;8.23;;
37069;SDS011;22984;48.862;9.320;2023-04-06T08:16:01;10.90;;;8.27;;
37069;SDS011;22984;48.862;9.320;2023-04-06T08:18:27;9.75;;;8.75;;
37069;SDS011;22984;48.862;9.320;2023-04-06T08:20:54;12.70;;;8.65;;
37069;SDS011;22984;48.862;9.320;2023-04-06T08:23:21;12.73;;;9.20;;
37069;SDS011;22984;48.862;9.320;2023-04-06T08:25:47;12.43;;;8.90;;
37069;SDS011;22984;48.862;9.320;2023-04-06T08:28:13;10.65;;;8.48;;
37069;SDS011;22984;48.862;9.320;2023-04-06T08:30:42;9.93;;;8.60;;
37069;SDS011;22984;48.862;9.320;2023-04-06T08:33:08;11.88;;;8.60;;
37069;SDS011;22984;48.862;9.320;2023-04-06T08:35:35;10.93;;;8.90;;
37069;SDS011;22984;48.862;9.320;2023-04-06T08:38:01;9.55;;;8.55;;
37069;SDS011;22984;48.862;9.320;2023-04-06T08:40:27;12.80;;;9.13;;
37069;SDS011;22984;48.862;9.320;2023-04-06T08:42:56;11.23;;;9.07;;
37069;SDS011;22984;48.862;9.320;2023-04-06T08:45:22;10.88;;;8.55;;
37069;SDS011;22984;48.862;9.320;2023-04-06T08:47:49;12.00;;;9.37;;
37069;SDS011;22984;48.862;9.320;2023-04-06T08:50:17;14.52;;;9.07;;
37069;SDS011;22984;48.862;9.320;2023-04-06T08:52:44;12.55;;;9.07;;
37069;SDS011;22984;48.862;9.320;2023-04-06T08:55:12;10.95;;;8.82;;
37069;SDS011;22984;48.862;9.320;2023-04-06T08:57:38;11.65;;;8.50;;
37069;SDS011;22984;48.862;9.320;2023-04-06T09:00:05;12.63;;;9.55;;
37069;SDS011;22984;48.862;9.320;2023-04-06T09:02:31;13.00;;;8.70;;
37069;SDS011;22984;48.862;9.320;2023-04-06T09:04:58;11.70;;;9.57;;
37069;SDS011;22984;48.862;9.320;2023-04-06T09:07:25;10.93;;;9.80;;
37069;SDS011;22984;48.862;9.320;2023-04-06T09:09:51;9.88;;;8.88;;
37069;SDS011;22984;48.862;9.320;2023-04-06T09:12:29;15.48;;;9.50;;
37069;SDS011;22984;48.862;9.320;2023-04-06T09:14:56;14.10;;;9.70;;
37069;SDS011;22984;48.862;9.320;2023-04-06T09:17:23;11.30;;;9.77;;
37069;SDS011;22984;48.862;9.320;2023-04-06T09:19:49;12.13;;;9.40;;
37069;SDS011;22984;48.862;9.320;2023-04-06T09:22:16;13.32;;;10.23;;
37069;SDS011;22984;48.862;9.320;2023-04-06T09:24:42;15.00;;;10.70;;
37069;SDS011;22984;48.862;9.320;2023-04-06T09:27:09;15.32;;;10.00;;
37069;SDS011;22984;48.862;9.320;2023-04-06T09:29:35;10.57;;;9.48;;
37069;SDS011;22984;48.862;9.320;2023-04-06T09:32:11;14.80;;;9.45;;
37069;SDS011;22984;48.862;9.320;2023-04-06T09:34:40;12.57;;;9.45;;
37069;SDS011;22984;48.862;9.320;2023-04-06T09:37:16;11.88;;;9.50;;
37069;SDS011;22984;48.862;9.320;2023-04-06T09:39:42;12.25;;;10.00;;
37069;SDS011;22984;48.862;9.320;2023-04-06T09:42:09;9.77;;;8.48;;
37069;SDS011;22984;48.862;9.320;2023-04-06T09:44:35;14.35;;;9.13;;
37069;SDS011;22984;48.862;9.320;2023-04-06T09:47:02;14.85;;;9.57;;
37069;SDS011;22984;48.862;9.320;2023-04-06T09:49:32;10.03;;;8.83;;
37069;SDS011;22984;48.862;9.320;2023-04-06T09:52:02;11.18;;;9.93;;
37069;SDS011;22984;48.862;9.320;2023-04-06T09:54:29;12.20;;;8.23;;
37069;SDS011;22984;48.862;9.320;2023-04-06T09:57:01;6.88;;;6.28;;
37069;SDS011;22984;48.862;9.320;2023-04-06T10:01:56;9.60;;;8.57;;
37069;SDS011;22984;48.862;9.320;2023-04-06T10:06:48;10.55;;;8.52;;
37069;SDS011;22984;48.862;9.320;2023-04-06T10:09:17;8.65;;;7.75;;
37069;SDS011;22984;48.862;9.320;2023-04-06T10:11:44;9.13;;;7.88;;
37069;SDS011;22984;48.862;9.320;2023-04-06T10:14:11;8.95;;;8.10;;
37069;SDS011;22984;48.862;9.320;2023-04-06T10:16:37;9.73;;;7.55;;
37069;SDS011;22984;48.862;9.320;2023-04-06T10:19:10;9.23;;;8.32;;
37069;SDS011;22984;48.862;9.320;2023-04-06T10:21:38;9.00;;;7.97;;
37069;SDS011;22984;48.862;9.320;2023-04-06T10:24:06;9.10;;;8.20;;
37069;SDS011;22984;48.862;9.320;2023-04-06T10:26:35;10.02;;;9.02;;
37069;SDS011;22984;48.862;9.320;2023-04-06T10:29:04;9.60;;;8.60;;
37069;SDS011;22984;48.862;9.320;2023-04-06T10:31:31;9.25;;;8.45;;
37069;SDS011;22984;48.862;9.320;2023-04-06T10:34:01;10.05;;;8.95;;
37069;SDS011;22984;48.862;9.320;2023-04-06T10:36:28;9.52;;;8.63;;
37069;SDS011;22984;48.862;9.320;2023-04-06T10:38:58;8.27;;;7.60;;
37069;SDS011;22984;48.862;9.320;2023-04-06T10:41:24;9.13;;;8.25;;
37069;SDS011;22984;48.862;9.320;2023-04-06T10:43:57;9.70;;;8.93;;
37069;SDS011;22984;48.862;9.320;2023-04-06T10:46:30;9.40;;;8.60;;
37069;SDS011;22984;48.862;9.320;2023-04-06T10:48:56;9.15;;;8.27;;
37069;SDS011;22984;48.862;9.320;2023-04-06T10:51:26;8.82;;;8.23;;
37069;SDS011;22984;48.862;9.320;2023-04-06T10:53:53;8.82;;;8.23;;
37069;SDS011;22984;48.862;9.320;2023-04-06T10:56:21;9.00;;;8.10;;
37069;SDS011;22984;48.862;9.320;2023-04-06T10:58:48;8.60;;;7.90;;
37069;SDS011;22984;48.862;9.320;2023-04-06T11:01:15;9.02;;;8.30;;
37069;SDS011;22984;48.862;9.320;2023-04-06T11:03:42;8.32;;;7.60;;
37069;SDS011;22984;48.862;9.320;2023-04-06T11:06:09;8.98;;;8.27;;
37069;SDS011;22984;48.862;9.320;2023-04-06T11:08:35;8.68;;;8.13;;
37069;SDS011;22984;48.862;9.320;2023-04-06T11:11:06;8.43;;;7.60;;
37069;SDS011;22984;48.862;9.320;2023-04-06T11:16:23;8.95;;;8.35;;
37069;SDS011;22984;48.862;9.320;2023-04-06T11:18:58;8.95;;;8.10;;
37069;SDS011;22984;48.862;9.320;2023-04-06T11:24:42;8.45;;;7.85;;
37069;SDS011;22984;48.862;9.320;2023-04-06T11:26:54;8.80;;;8.23;;
37069;SDS011;22984;48.862;9.320;2023-04-06T11:29:24;9.23;;;8.50;;
37069;SDS011;22984;48.862;9.320;2023-04-06T11:31:52;10.32;;;9.20;;
37069;SDS011;22984;48.862;9.320;2023-04-06T11:34:19;8.32;;;7.63;;
37069;SDS011;22984;48.862;9.320;2023-04-06T11:36:45;7.78;;;7.18;;
37069;SDS011;22984;48.862;9.320;2023-04-06T11:39:12;8.23;;;7.43;;
37069;SDS011;22984;48.862;9.320;2023-04-06T11:41:39;8.10;;;7.32;;
37069;SDS011;22984;48.862;9.320;2023-04-06T11:44:06;8.17;;;7.57;;
37069;SDS011;22984;48.862;9.320;2023-04-06T11:46:32;7.55;;;6.93;;
37069;SDS011;22984;48.862;9.320;2023-04-06T11:48:59;8.57;;;7.93;;
37069;SDS011;22984;48.862;9.320;2023-04-06T11:51:25;8.35;;;7.65;;
37069;SDS011;22984;48.862;9.320;2023-04-06T11:53:52;8.60;;;7.80;;
37069;SDS011;22984;48.862;9.320;2023-04-06T11:56:28;10.35;;;7.95;;
37069;SDS011;22984;48.862;9.320;2023-04-06T11:58:55;8.80;;;7.60;;
37069;SDS011;22984;48.862;9.320;2023-04-06T12:01:21;8.10;;;7.57;;
37069;SDS011;22984;48.862;9.320;2023-04-06T12:03:47;8.02;;;7.45;;
37069;SDS011;22984;48.862;9.320;2023-04-06T12:06:14;8.57;;;7.72;;
37069;SDS011;22984;48.862;9.320;2023-04-06T12:08:40;7.40;;;6.80;;
37069;SDS011;22984;48.862;9.320;2023-04-06T12:11:07;7.75;;;7.22;;
37069;SDS011;22984;48.862;9.320;2023-04-06T12:13:33;8.85;;;7.35;;
37069;SDS011;22984;48.862;9.320;2023-04-06T12:15:59;7.20;;;6.80;;
37069;SDS011;22984;48.862;9.320;2023-04-06T12:18:27;7.15;;;6.63;;
37069;SDS011;22984;48.862;9.320;2023-04-06T12:20:53;7.28;;;6.63;;
37069;SDS011;22984;48.862;9.320;2023-04-06T12:23:19;7.20;;;6.70;;
37069;SDS011;22984;48.862;9.320;2023-04-06T12:25:45;7.90;;;7.10;;
37069;SDS011;22984;48.862;9.320;2023-04-06T12:28:11;6.90;;;6.30;;
37069;SDS011;22984;48.862;9.320;2023-04-06T12:30:37;7.70;;;7.10;;
37069;SDS011;22984;48.862;9.320;2023-04-06T12:33:05;7.70;;;7.20;;
37069;SDS011;22984;48.862;9.320;2023-04-06T12:35:34;7.35;;;6.75;;
37069;SDS011;22984;48.862;9.320;2023-04-06T12:38:01;7.40;;;6.80;;
37069;SDS011;22984;48.862;9.320;2023-04-06T12:40:27;7.20;;;6.80;;
37069;SDS011;22984;48.862;9.320;2023-04-06T12:42:54;7.10;;;6.67;;
37069;SDS011;22984;48.862;9.320;2023-04-06T12:45:20;7.30;;;6.60;;
37069;SDS011;22984;48.862;9.320;2023-04-06T12:47:46;7.32;;;6.78;;
37069;SDS011;22984;48.862;9.320;2023-04-06T12:50:12;6.30;;;5.80;;
37069;SDS011;22984;48.862;9.320;2023-04-06T12:52:38;7.18;;;5.70;;
37069;SDS011;22984;48.862;9.320;2023-04-06T12:55:04;5.70;;;5.32;;
37069;SDS011;22984;48.862;9.320;2023-04-06T12:57:31;7.05;;;6.55;;
37069;SDS011;22984;48.862;9.320;2023-04-06T12:59:57;6.60;;;6.10;;
37069;SDS011;22984;48.862;9.320;2023-04-06T13:02:23;6.47;;;5.97;;
37069;SDS011;22984;48.862;9.320;2023-04-06T13:04:51;6.07;;;5.77;;
37069;SDS011;22984;48.862;9.320;2023-04-06T13:07:17;6.10;;;5.65;;
37069;SDS011;22984;48.862;9.320;2023-04-06T13:09:43;5.03;;;4.72;;
37069;SDS011;22984;48.862;9.320;2023-04-06T13:12:10;6.43;;;5.70;;
37069;SDS011;22984;48.862;9.320;2023-04-06T13:14:36;6.30;;;5.90;;
37069;SDS011;22984;48.862;9.320;2023-04-06T13:17:02;6.40;;;6.00;;
37069;SDS011;22984;48.862;9.320;2023-04-06T13:19:28;6.37;;;5.87;;
37069;SDS011;22984;48.862;9.320;2023-04-06T13:21:56;5.75;;;5.45;;
37069;SDS011;22984;48.862;9.320;2023-04-06T13:24:22;6.00;;;5.60;;
37069;SDS011;22984;48.862;9.320;2023-04-06T13:26:48;6.35;;;5.75;;
37069;SDS011;22984;48.862;9.320;2023-04-06T13:29:14;6.43;;;6.10;;
37069;SDS011;22984;48.862;9.320;2023-04-06T13:31:40;6.00;;;5.57;;
37069;SDS011;22984;48.862;9.320;2023-04-06T13:34:07;10.52;;;6.80;;
37069;SDS011;22984;48.862;9.320;2023-04-06T13:36:33;7.70;;;6.80;;
37069;SDS011;22984;48.862;9.320;2023-04-06T13:38:59;7.57;;;6.97;;
37069;SDS011;22984;48.862;9.320;2023-04-06T13:41:25;6.50;;;6.03;;
37069;SDS011;22984;48.862;9.320;2023-04-06T13:43:52;6.40;;;5.90;;
37069;SDS011;22984;48.862;9.320;2023-04-06T13:46:18;6.00;;;5.60;;
37069;SDS011;22984;48.862;9.320;2023-04-06T13:48:44;6.65;;;6.03;;
37069;SDS011;22984;48.862;9.320;2023-04-06T13:51:12;7.05;;;6.35;;
37069;SDS011;22984;48.862;9.320;2023-04-06T13:53:38;6.47;;;6.07;;
37069;SDS011;22984;48.862;9.320;2023-04-06T13:56:05;7.10;;;6.23;;
37069;SDS011;22984;48.862;9.320;2023-04-06T13:58:31;6.17;;;5.60;;
37069;SDS011;22984;48.862;9.320;2023-04-06T14:01:04;5.93;;;5.37;;
37069;SDS011;22984;48.862;9.320;2023-04-06T14:03:31;5.63;;;5.05;;
37069;SDS011;22984;48.862;9.320;2023-04-06T14:05:57;5.97;;;5.43;;
37069;SDS011;22984;48.862;9.320;2023-04-06T14:08:23;5.67;;;5.27;;
37069;SDS011;22984;48.862;9.320;2023-04-06T14:10:49;4.90;;;4.60;;
37069;SDS011;22984;48.862;9.320;2023-04-06T14:13:15;5.15;;;4.63;;
37069;SDS011;22984;48.862;9.320;2023-04-06T14:15:42;5.07;;;4.67;;
37069;SDS011;22984;48.862;9.320;2023-04-06T14:18:08;5.97;;;5.47;;
37069;SDS011;22984;48.862;9.320;2023-04-06T14:20:34;6.68;;;5.97;;
37069;SDS011;22984;48.862;9.320;2023-04-06T14:23:01;6.17;;;5.50;;
37069;SDS011;22984;48.862;9.320;2023-04-06T14:25:27;6.63;;;6.13;;
37069;SDS011;22984;48.862;9.320;2023-04-06T14:27:53;6.10;;;5.60;;
37069;SDS011;22984;48.862;9.320;2023-04-06T14:30:19;7.85;;;5.90;;
37069;SDS011;22984;48.862;9.320;2023-04-06T14:32:45;5.93;;;5.43;;
37069;SDS011;22984;48.862;9.320;2023-04-06T14:35:11;6.32;;;5.93;;
37069;SDS011;22984;48.862;9.320;2023-04-06T14:37:37;10.07;;;6.07;;